sensor_id;sensor_type;location;lat;lon;timestamp;P1;durP1;ratioP1;P2;durP2;ratioP2
68484;SDS011;55472;50.060;21.960;2023-02-22T00:01:31;10.03;;;1.93;;
68484;SDS011;55472;50.060;21.960;2023-02-22T00:04:11;12.07;;;2.25;;
68484;SDS011;55472;50.060;21.960;2023-02-22T00:06:38;7.90;;;1.88;;
68484;SDS011;55472;50.060;21.960;2023-02-22T00:09:04;10.20;;;2.50;;
68484;SDS011;55472;50.060;21.960;2023-02-22T00:11:33;10.30;;;2.10;;
68484;SDS011;55472;50.060;21.960;2023-02-22T00:13:59;10.77;;;1.97;;
68484;SDS011;55472;50.060;21.960;2023-02-22T00:16:26;11.98;;;1.85;;
68484;SDS011;55472;50.060;21.960;2023-02-22T00:18:54;8.23;;;2.00;;
68484;SDS011;55472;50.060;21.960;2023-02-22T00:21:21;9.90;;;2.40;;
68484;SDS011;55472;50.060;21.960;2023-02-22T00:23:47;9.68;;;1.92;;
68484;SDS011;55472;50.060;21.960;2023-02-22T00:26:15;10.10;;;2.03;;
68484;SDS011;55472;50.060;21.960;2023-02-22T00:28:45;9.63;;;2.28;;
68484;SDS011;55472;50.060;21.960;2023-02-22T00:31:13;8.77;;;2.15;;
68484;SDS011;55472;50.060;21.960;2023-02-22T00:33:40;8.85;;;2.22;;
68484;SDS011;55472;50.060;21.960;2023-02-22T00:36:07;6.70;;;1.70;;
68484;SDS011;55472;50.060;21.960;2023-02-22T00:38:35;8.83;;;2.13;;
68484;SDS011;55472;50.060;21.960;2023-02-22T00:41:01;7.07;;;1.73;;
68484;SDS011;55472;50.060;21.960;2023-02-22T00:43:28;6.45;;;1.58;;
68484;SDS011;55472;50.060;21.960;2023-02-22T00:45:54;9.45;;;1.98;;
68484;SDS011;55472;50.060;21.960;2023-02-22T00:48:21;8.88;;;1.77;;
68484;SDS011;55472;50.060;21.960;2023-02-22T00:50:47;8.97;;;1.70;;
68484;SDS011;55472;50.060;21.960;2023-02-22T00:53:14;10.35;;;1.98;;
68484;SDS011;55472;50.060;21.960;2023-02-22T00:55:41;8.48;;;1.90;;
68484;SDS011;55472;50.060;21.960;2023-02-22T00:58:07;9.52;;;1.75;;
68484;SDS011;55472;50.060;21.960;2023-02-22T01:00:35;8.98;;;1.80;;
68484;SDS011;55472;50.060;21.960;2023-02-22T01:03:08;8.47;;;2.17;;
68484;SDS011;55472;50.060;21.960;2023-02-22T01:05:36;8.77;;;2.25;;
68484;SDS011;55472;50.060;21.960;2023-02-22T01:08:02;9.85;;;1.88;;
68484;SDS011;55472;50.060;21.960;2023-02-22T01:10:34;12.00;;;2.13;;
68484;SDS011;55472;50.060;21.960;2023-02-22T01:13:02;15.55;;;1.80;;
68484;SDS011;55472;50.060;21.960;2023-02-22T01:15:33;6.47;;;1.50;;
68484;SDS011;55472;50.060;21.960;2023-02-22T01:18:01;9.35;;;1.85;;
68484;SDS011;55472;50.060;21.960;2023-02-22T01:20:29;9.40;;;1.95;;
68484;SDS011;55472;50.060;21.960;2023-02-22T01:22:57;8.18;;;1.70;;
68484;SDS011;55472;50.060;21.960;2023-02-22T01:25:26;7.50;;;1.58;;
68484;SDS011;55472;50.060;21.960;2023-02-22T01:27:54;12.33;;;2.27;;
68484;SDS011;55472;50.060;21.960;2023-02-22T01:30:24;9.23;;;1.67;;
68484;SDS011;55472;50.060;21.960;2023-02-22T01:32:53;8.30;;;1.25;;
68484;SDS011;55472;50.060;21.960;2023-02-22T01:35:22;8.77;;;1.60;;
68484;SDS011;55472;50.060;21.960;2023-02-22T01:37:53;8.82;;;1.50;;
68484;SDS011;55472;50.060;21.960;2023-02-22T01:40:25;7.20;;;1.67;;
68484;SDS011;55472;50.060;21.960;2023-02-22T01:42:58;7.00;;;1.52;;
68484;SDS011;55472;50.060;21.960;2023-02-22T01:47:57;8.27;;;1.42;;
68484;SDS011;55472;50.060;21.960;2023-02-22T01:50:37;8.35;;;1.38;;
68484;SDS011;55472;50.060;21.960;2023-02-22T01:53:08;7.23;;;1.53;;
68484;SDS011;55472;50.060;21.960;2023-02-22T01:55:38;8.57;;;1.58;;
68484;SDS011;55472;50.060;21.960;2023-02-22T01:58:04;9.85;;;1.40;;
68484;SDS011;55472;50.060;21.960;2023-02-22T02:00:33;7.55;;;1.73;;
68484;SDS011;55472;50.060;21.960;2023-02-22T02:03:06;5.68;;;1.27;;
68484;SDS011;55472;50.060;21.960;2023-02-22T02:05:40;8.57;;;1.33;;
68484;SDS011;55472;50.060;21.960;2023-02-22T02:08:13;9.70;;;1.30;;
68484;SDS011;55472;50.060;21.960;2023-02-22T02:11:15;9.90;;;1.30;;
68484;SDS011;55472;50.060;21.960;2023-02-22T02:13:49;7.95;;;1.10;;
68484;SDS011;55472;50.060;21.960;2023-02-22T02:16:20;7.78;;;1.40;;
68484;SDS011;55472;50.060;21.960;2023-02-22T02:18:48;12.53;;;1.53;;
68484;SDS011;55472;50.060;21.960;2023-02-22T02:27:39;5.72;;;1.10;;
68484;SDS011;55472;50.060;21.960;2023-02-22T02:38:43;8.77;;;1.20;;
68484;SDS011;55472;50.060;21.960;2023-02-22T02:41:25;7.35;;;1.23;;
68484;SDS011;55472;50.060;21.960;2023-02-22T02:44:00;6.63;;;1.50;;
68484;SDS011;55472;50.060;21.960;2023-02-22T02:46:36;10.13;;;1.50;;
68484;SDS011;55472;50.060;21.960;2023-02-22T02:49:12;7.22;;;1.20;;
68484;SDS011;55472;50.060;21.960;2023-02-22T02:51:46;6.03;;;1.08;;
68484;SDS011;55472;50.060;21.960;2023-02-22T02:54:17;7.18;;;1.50;;
68484;SDS011;55472;50.060;21.960;2023-02-22T02:56:45;10.73;;;1.45;;
68484;SDS011;55472;50.060;21.960;2023-02-22T02:59:22;10.50;;;1.77;;
68484;SDS011;55472;50.060;21.960;2023-02-22T03:07:48;9.93;;;1.65;;
68484;SDS011;55472;50.060;21.960;2023-02-22T03:13:55;8.97;;;0.90;;
68484;SDS011;55472;50.060;21.960;2023-02-22T03:22:21;7.47;;;1.42;;
68484;SDS011;55472;50.060;21.960;2023-02-22T03:25:26;8.27;;;1.40;;
68484;SDS011;55472;50.060;21.960;2023-02-22T03:28:02;7.93;;;1.13;;
68484;SDS011;55472;50.060;21.960;2023-02-22T03:30:47;4.90;;;1.27;;
68484;SDS011;55472;50.060;21.960;2023-02-22T03:36:25;10.20;;;1.55;;
68484;SDS011;55472;50.060;21.960;2023-02-22T03:38:57;9.68;;;1.25;;
68484;SDS011;55472;50.060;21.960;2023-02-22T03:41:28;8.00;;;1.53;;
68484;SDS011;55472;50.060;21.960;2023-02-22T03:43:59;8.23;;;1.30;;
68484;SDS011;55472;50.060;21.960;2023-02-22T03:46:33;3.67;;;0.98;;
68484;SDS011;55472;50.060;21.960;2023-02-22T03:51:44;8.65;;;1.63;;
68484;SDS011;55472;50.060;21.960;2023-02-22T03:54:12;11.27;;;1.67;;
68484;SDS011;55472;50.060;21.960;2023-02-22T03:56:51;7.30;;;1.25;;
68484;SDS011;55472;50.060;21.960;2023-02-22T03:59:22;7.13;;;1.13;;
68484;SDS011;55472;50.060;21.960;2023-02-22T04:01:54;8.27;;;1.30;;
68484;SDS011;55472;50.060;21.960;2023-02-22T04:04:22;7.45;;;1.33;;
68484;SDS011;55472;50.060;21.960;2023-02-22T04:06:49;7.63;;;1.47;;
68484;SDS011;55472;50.060;21.960;2023-02-22T04:09:17;6.78;;;1.58;;
68484;SDS011;55472;50.060;21.960;2023-02-22T04:11:44;10.27;;;1.63;;
68484;SDS011;55472;50.060;21.960;2023-02-22T04:14:11;8.00;;;1.80;;
68484;SDS011;55472;50.060;21.960;2023-02-22T04:16:37;6.75;;;1.58;;
68484;SDS011;55472;50.060;21.960;2023-02-22T04:19:04;10.33;;;1.63;;
68484;SDS011;55472;50.060;21.960;2023-02-22T04:21:30;10.35;;;2.03;;
68484;SDS011;55472;50.060;21.960;2023-02-22T04:23:57;8.63;;;2.08;;
68484;SDS011;55472;50.060;21.960;2023-02-22T04:26:24;12.07;;;1.80;;
68484;SDS011;55472;50.060;21.960;2023-02-22T04:28:50;9.65;;;2.30;;
68484;SDS011;55472;50.060;21.960;2023-02-22T04:31:16;12.77;;;2.20;;
68484;SDS011;55472;50.060;21.960;2023-02-22T04:33:43;11.77;;;2.00;;
68484;SDS011;55472;50.060;21.960;2023-02-22T04:36:09;12.77;;;1.90;;
68484;SDS011;55472;50.060;21.960;2023-02-22T04:38:35;13.57;;;1.98;;
68484;SDS011;55472;50.060;21.960;2023-02-22T04:41:02;8.85;;;1.65;;
68484;SDS011;55472;50.060;21.960;2023-02-22T04:43:28;9.40;;;1.63;;
68484;SDS011;55472;50.060;21.960;2023-02-22T04:45:54;13.25;;;2.22;;
68484;SDS011;55472;50.060;21.960;2023-02-22T04:48:20;12.85;;;1.90;;
68484;SDS011;55472;50.060;21.960;2023-02-22T04:50:46;11.35;;;2.10;;
68484;SDS011;55472;50.060;21.960;2023-02-22T04:53:13;12.80;;;2.42;;
68484;SDS011;55472;50.060;21.960;2023-02-22T04:55:39;8.23;;;1.73;;
68484;SDS011;55472;50.060;21.960;2023-02-22T04:58:05;9.30;;;1.90;;
68484;SDS011;55472;50.060;21.960;2023-02-22T05:00:31;8.88;;;1.83;;
68484;SDS011;55472;50.060;21.960;2023-02-22T05:02:58;6.35;;;1.50;;
68484;SDS011;55472;50.060;21.960;2023-02-22T05:05:24;7.18;;;1.90;;
68484;SDS011;55472;50.060;21.960;2023-02-22T05:07:50;9.77;;;1.90;;
68484;SDS011;55472;50.060;21.960;2023-02-22T05:10:17;9.60;;;2.00;;
68484;SDS011;55472;50.060;21.960;2023-02-22T05:12:44;14.90;;;3.03;;
68484;SDS011;55472;50.060;21.960;2023-02-22T05:15:14;11.40;;;2.38;;
68484;SDS011;55472;50.060;21.960;2023-02-22T05:17:43;12.32;;;2.30;;
68484;SDS011;55472;50.060;21.960;2023-02-22T05:20:15;14.40;;;2.97;;
68484;SDS011;55472;50.060;21.960;2023-02-22T05:22:49;14.80;;;2.75;;
68484;SDS011;55472;50.060;21.960;2023-02-22T05:25:16;14.45;;;2.53;;
68484;SDS011;55472;50.060;21.960;2023-02-22T05:27:48;13.25;;;2.50;;
68484;SDS011;55472;50.060;21.960;2023-02-22T05:30:25;11.98;;;1.85;;
68484;SDS011;55472;50.060;21.960;2023-02-22T05:32:55;9.07;;;2.17;;
68484;SDS011;55472;50.060;21.960;2023-02-22T05:35:22;8.98;;;2.30;;
68484;SDS011;55472;50.060;21.960;2023-02-22T05:37:48;12.52;;;1.90;;
68484;SDS011;55472;50.060;21.960;2023-02-22T05:40:16;9.00;;;1.90;;
68484;SDS011;55472;50.060;21.960;2023-02-22T05:42:52;10.90;;;1.88;;
68484;SDS011;55472;50.060;21.960;2023-02-22T05:45:21;13.03;;;2.30;;
68484;SDS011;55472;50.060;21.960;2023-02-22T05:47:54;12.55;;;1.92;;
68484;SDS011;55472;50.060;21.960;2023-02-22T05:50:20;11.95;;;2.22;;
68484;SDS011;55472;50.060;21.960;2023-02-22T05:52:47;8.40;;;1.77;;
68484;SDS011;55472;50.060;21.960;2023-02-22T05:55:14;9.45;;;1.85;;
68484;SDS011;55472;50.060;21.960;2023-02-22T05:57:43;9.50;;;1.70;;
68484;SDS011;55472;50.060;21.960;2023-02-22T06:00:13;6.43;;;1.85;;
68484;SDS011;55472;50.060;21.960;2023-02-22T06:02:57;9.25;;;2.00;;
68484;SDS011;55472;50.060;21.960;2023-02-22T06:05:30;13.55;;;1.92;;
68484;SDS011;55472;50.060;21.960;2023-02-22T06:07:57;9.52;;;1.80;;
68484;SDS011;55472;50.060;21.960;2023-02-22T06:10:24;8.70;;;1.57;;
68484;SDS011;55472;50.060;21.960;2023-02-22T06:12:52;9.85;;;1.90;;
68484;SDS011;55472;50.060;21.960;2023-02-22T06:15:19;6.90;;;1.90;;
68484;SDS011;55472;50.060;21.960;2023-02-22T06:17:47;9.10;;;1.70;;
68484;SDS011;55472;50.060;21.960;2023-02-22T06:20:15;12.43;;;1.70;;
68484;SDS011;55472;50.060;21.960;2023-02-22T06:22:47;10.67;;;1.90;;
68484;SDS011;55472;50.060;21.960;2023-02-22T06:25:16;6.90;;;2.35;;
68484;SDS011;55472;50.060;21.960;2023-02-22T06:27:45;12.40;;;2.72;;
68484;SDS011;55472;50.060;21.960;2023-02-22T06:30:12;11.32;;;2.40;;
68484;SDS011;55472;50.060;21.960;2023-02-22T06:32:40;14.20;;;3.30;;
68484;SDS011;55472;50.060;21.960;2023-02-22T06:35:06;10.03;;;1.93;;
68484;SDS011;55472;50.060;21.960;2023-02-22T06:37:33;14.32;;;3.17;;
68484;SDS011;55472;50.060;21.960;2023-02-22T06:40:00;7.13;;;2.08;;
68484;SDS011;55472;50.060;21.960;2023-02-22T06:42:27;12.13;;;2.08;;
68484;SDS011;55472;50.060;21.960;2023-02-22T06:44:53;11.57;;;2.75;;
68484;SDS011;55472;50.060;21.960;2023-02-22T06:47:19;11.73;;;2.23;;
68484;SDS011;55472;50.060;21.960;2023-02-22T06:49:50;14.25;;;3.25;;
68484;SDS011;55472;50.060;21.960;2023-02-22T06:52:18;12.38;;;3.55;;
68484;SDS011;55472;50.060;21.960;2023-02-22T06:54:45;12.93;;;2.63;;
68484;SDS011;55472;50.060;21.960;2023-02-22T06:57:12;10.30;;;2.60;;
68484;SDS011;55472;50.060;21.960;2023-02-22T06:59:38;13.43;;;2.37;;
68484;SDS011;55472;50.060;21.960;2023-02-22T07:02:05;13.02;;;2.55;;
68484;SDS011;55472;50.060;21.960;2023-02-22T07:04:31;11.23;;;2.50;;
68484;SDS011;55472;50.060;21.960;2023-02-22T07:06:57;12.75;;;2.45;;
68484;SDS011;55472;50.060;21.960;2023-02-22T07:09:23;10.10;;;2.50;;
68484;SDS011;55472;50.060;21.960;2023-02-22T07:11:50;15.37;;;2.90;;
68484;SDS011;55472;50.060;21.960;2023-02-22T07:14:16;12.77;;;2.45;;
68484;SDS011;55472;50.060;21.960;2023-02-22T07:16:42;10.20;;;2.10;;
68484;SDS011;55472;50.060;21.960;2023-02-22T07:19:08;9.45;;;2.35;;
68484;SDS011;55472;50.060;21.960;2023-02-22T07:21:35;10.60;;;2.10;;
68484;SDS011;55472;50.060;21.960;2023-02-22T07:24:01;13.93;;;2.23;;
68484;SDS011;55472;50.060;21.960;2023-02-22T07:26:27;8.68;;;1.70;;
68484;SDS011;55472;50.060;21.960;2023-02-22T07:28:53;5.90;;;1.55;;
68484;SDS011;55472;50.060;21.960;2023-02-22T07:31:20;6.60;;;1.25;;
68484;SDS011;55472;50.060;21.960;2023-02-22T07:33:46;13.25;;;2.90;;
68484;SDS011;55472;50.060;21.960;2023-02-22T07:36:14;10.33;;;1.97;;
68484;SDS011;55472;50.060;21.960;2023-02-22T07:38:43;8.98;;;1.55;;
68484;SDS011;55472;50.060;21.960;2023-02-22T07:41:10;9.10;;;1.80;;
68484;SDS011;55472;50.060;21.960;2023-02-22T07:43:36;7.05;;;2.10;;
68484;SDS011;55472;50.060;21.960;2023-02-22T07:46:03;10.00;;;1.77;;
68484;SDS011;55472;50.060;21.960;2023-02-22T07:48:30;8.73;;;1.60;;
68484;SDS011;55472;50.060;21.960;2023-02-22T07:50:58;9.32;;;1.85;;
68484;SDS011;55472;50.060;21.960;2023-02-22T07:53:25;8.35;;;1.92;;
68484;SDS011;55472;50.060;21.960;2023-02-22T07:55:55;13.45;;;2.63;;
68484;SDS011;55472;50.060;21.960;2023-02-22T07:58:23;9.13;;;2.00;;
68484;SDS011;55472;50.060;21.960;2023-02-22T08:00:52;13.10;;;2.70;;
68484;SDS011;55472;50.060;21.960;2023-02-22T08:03:19;9.45;;;1.95;;
68484;SDS011;55472;50.060;21.960;2023-02-22T08:05:49;12.18;;;4.05;;
68484;SDS011;55472;50.060;21.960;2023-02-22T08:08:18;9.27;;;2.63;;
68484;SDS011;55472;50.060;21.960;2023-02-22T08:10:45;15.65;;;6.20;;
68484;SDS011;55472;50.060;21.960;2023-02-22T08:13:12;11.00;;;2.83;;
68484;SDS011;55472;50.060;21.960;2023-02-22T08:15:39;12.55;;;2.80;;
68484;SDS011;55472;50.060;21.960;2023-02-22T08:18:12;11.20;;;3.67;;
68484;SDS011;55472;50.060;21.960;2023-02-22T08:20:42;12.73;;;3.30;;
68484;SDS011;55472;50.060;21.960;2023-02-22T08:23:10;12.70;;;3.20;;
68484;SDS011;55472;50.060;21.960;2023-02-22T08:25:38;10.50;;;2.83;;
68484;SDS011;55472;50.060;21.960;2023-02-22T08:28:06;10.77;;;1.90;;
68484;SDS011;55472;50.060;21.960;2023-02-22T08:30:40;10.23;;;1.52;;
68484;SDS011;55472;50.060;21.960;2023-02-22T08:33:08;11.20;;;1.75;;
68484;SDS011;55472;50.060;21.960;2023-02-22T08:35:38;8.57;;;1.60;;
68484;SDS011;55472;50.060;21.960;2023-02-22T08:38:13;5.97;;;1.30;;
68484;SDS011;55472;50.060;21.960;2023-02-22T08:40:49;8.15;;;1.80;;
68484;SDS011;55472;50.060;21.960;2023-02-22T08:43:16;8.68;;;1.73;;
68484;SDS011;55472;50.060;21.960;2023-02-22T08:45:44;9.18;;;1.70;;
68484;SDS011;55472;50.060;21.960;2023-02-22T08:48:12;7.63;;;1.20;;
68484;SDS011;55472;50.060;21.960;2023-02-22T08:50:39;12.10;;;1.60;;
68484;SDS011;55472;50.060;21.960;2023-02-22T08:53:06;7.18;;;1.77;;
68484;SDS011;55472;50.060;21.960;2023-02-22T08:55:35;9.38;;;1.75;;
68484;SDS011;55472;50.060;21.960;2023-02-22T08:58:03;8.20;;;1.98;;
68484;SDS011;55472;50.060;21.960;2023-02-22T09:00:34;9.68;;;1.73;;
68484;SDS011;55472;50.060;21.960;2023-02-22T09:03:03;7.67;;;1.70;;
68484;SDS011;55472;50.060;21.960;2023-02-22T09:05:33;8.52;;;1.52;;
68484;SDS011;55472;50.060;21.960;2023-02-22T09:07:59;9.00;;;1.40;;
68484;SDS011;55472;50.060;21.960;2023-02-22T09:10:29;7.65;;;1.23;;
68484;SDS011;55472;50.060;21.960;2023-02-22T09:12:57;7.13;;;1.45;;
68484;SDS011;55472;50.060;21.960;2023-02-22T09:15:25;7.63;;;1.77;;
68484;SDS011;55472;50.060;21.960;2023-02-22T09:17:52;6.55;;;1.30;;
68484;SDS011;55472;50.060;21.960;2023-02-22T09:20:19;8.98;;;1.50;;
68484;SDS011;55472;50.060;21.960;2023-02-22T09:22:48;8.82;;;1.85;;
68484;SDS011;55472;50.060;21.960;2023-02-22T09:25:15;7.78;;;1.67;;
68484;SDS011;55472;50.060;21.960;2023-02-22T09:27:48;12.27;;;2.47;;
68484;SDS011;55472;50.060;21.960;2023-02-22T09:30:22;9.90;;;2.50;;
68484;SDS011;55472;50.060;21.960;2023-02-22T09:32:51;7.60;;;1.90;;
68484;SDS011;55472;50.060;21.960;2023-02-22T09:35:23;13.20;;;2.70;;
68484;SDS011;55472;50.060;21.960;2023-02-22T09:37:52;13.63;;;2.72;;
68484;SDS011;55472;50.060;21.960;2023-02-22T09:40:23;9.17;;;2.30;;
68484;SDS011;55472;50.060;21.960;2023-02-22T09:48:22;13.38;;;2.42;;
68484;SDS011;55472;50.060;21.960;2023-02-22T09:50:50;5.07;;;1.50;;
68484;SDS011;55472;50.060;21.960;2023-02-22T09:53:33;6.20;;;1.53;;
68484;SDS011;55472;50.060;21.960;2023-02-22T09:56:13;8.68;;;1.80;;
68484;SDS011;55472;50.060;21.960;2023-02-22T10:01:18;12.88;;;2.78;;
68484;SDS011;55472;50.060;21.960;2023-02-22T10:04:03;9.02;;;2.67;;
68484;SDS011;55472;50.060;21.960;2023-02-22T10:09:42;7.32;;;1.63;;
68484;SDS011;55472;50.060;21.960;2023-02-22T10:12:24;8.10;;;1.52;;
68484;SDS011;55472;50.060;21.960;2023-02-22T10:25:00;9.63;;;2.28;;
68484;SDS011;55472;50.060;21.960;2023-02-22T10:27:36;8.68;;;2.10;;
68484;SDS011;55472;50.060;21.960;2023-02-22T10:30:18;8.07;;;1.98;;
68484;SDS011;55472;50.060;21.960;2023-02-22T10:33:03;11.52;;;2.45;;
68484;SDS011;55472;50.060;21.960;2023-02-22T10:35:50;12.20;;;2.30;;
68484;SDS011;55472;50.060;21.960;2023-02-22T10:38:21;11.20;;;2.00;;
68484;SDS011;55472;50.060;21.960;2023-02-22T10:43:49;7.03;;;1.75;;
68484;SDS011;55472;50.060;21.960;2023-02-22T10:46:17;8.02;;;1.80;;
68484;SDS011;55472;50.060;21.960;2023-02-22T10:48:46;9.40;;;1.70;;
68484;SDS011;55472;50.060;21.960;2023-02-22T10:52:03;9.25;;;1.85;;
68484;SDS011;55472;50.060;21.960;2023-02-22T10:54:40;43.83;;;15.00;;
68484;SDS011;55472;50.060;21.960;2023-02-22T10:57:15;14.57;;;5.05;;
68484;SDS011;55472;50.060;21.960;2023-02-22T11:00:13;8.57;;;2.75;;
68484;SDS011;55472;50.060;21.960;2023-02-22T11:03:14;12.67;;;3.53;;
68484;SDS011;55472;50.060;21.960;2023-02-22T11:05:50;9.27;;;2.10;;
68484;SDS011;55472;50.060;21.960;2023-02-22T11:10:47;9.25;;;1.73;;
68484;SDS011;55472;50.060;21.960;2023-02-22T11:13:58;7.10;;;1.45;;
68484;SDS011;55472;50.060;21.960;2023-02-22T11:19:28;8.48;;;1.80;;
68484;SDS011;55472;50.060;21.960;2023-02-22T11:24:51;7.72;;;1.80;;
68484;SDS011;55472;50.060;21.960;2023-02-22T11:27:40;11.68;;;2.10;;
68484;SDS011;55472;50.060;21.960;2023-02-22T11:30:17;8.10;;;2.00;;
68484;SDS011;55472;50.060;21.960;2023-02-22T11:36:05;10.63;;;2.15;;
68484;SDS011;55472;50.060;21.960;2023-02-22T11:38:34;6.82;;;1.77;;
68484;SDS011;55472;50.060;21.960;2023-02-22T11:41:26;7.53;;;1.98;;
68484;SDS011;55472;50.060;21.960;2023-02-22T11:44:12;7.63;;;2.10;;
68484;SDS011;55472;50.060;21.960;2023-02-22T11:46:55;8.75;;;2.42;;
68484;SDS011;55472;50.060;21.960;2023-02-22T11:49:48;8.57;;;1.70;;
68484;SDS011;55472;50.060;21.960;2023-02-22T11:52:36;8.15;;;1.88;;
68484;SDS011;55472;50.060;21.960;2023-02-22T11:55:22;8.20;;;2.55;;
68484;SDS011;55472;50.060;21.960;2023-02-22T12:21:39;8.15;;;2.20;;
68484;SDS011;55472;50.060;21.960;2023-02-22T12:24:11;10.27;;;2.70;;
68484;SDS011;55472;50.060;21.960;2023-02-22T12:26:45;7.67;;;2.47;;
68484;SDS011;55472;50.060;21.960;2023-02-22T12:29:36;9.75;;;2.35;;
68484;SDS011;55472;50.060;21.960;2023-02-22T12:32:13;9.45;;;2.30;;
68484;SDS011;55472;50.060;21.960;2023-02-22T12:38:09;9.38;;;2.28;;
68484;SDS011;55472;50.060;21.960;2023-02-22T12:44:09;7.80;;;2.10;;
68484;SDS011;55472;50.060;21.960;2023-02-22T12:46:54;7.50;;;1.65;;
68484;SDS011;55472;50.060;21.960;2023-02-22T12:49:29;5.35;;;1.25;;
68484;SDS011;55472;50.060;21.960;2023-02-22T12:52:31;6.18;;;1.55;;
68484;SDS011;55472;50.060;21.960;2023-02-22T12:55:19;7.57;;;1.33;;
68484;SDS011;55472;50.060;21.960;2023-02-22T13:00:46;7.97;;;1.50;;
68484;SDS011;55472;50.060;21.960;2023-02-22T13:24:07;7.27;;;1.60;;
68484;SDS011;55472;50.060;21.960;2023-02-22T13:27:19;10.45;;;2.50;;
68484;SDS011;55472;50.060;21.960;2023-02-22T13:30:26;5.07;;;1.80;;
68484;SDS011;55472;50.060;21.960;2023-02-22T13:33:12;9.55;;;2.80;;
68484;SDS011;55472;50.060;21.960;2023-02-22T13:53:24;7.37;;;1.70;;
68484;SDS011;55472;50.060;21.960;2023-02-22T13:55:59;10.27;;;4.75;;
68484;SDS011;55472;50.060;21.960;2023-02-22T13:58:26;11.95;;;4.13;;
68484;SDS011;55472;50.060;21.960;2023-02-22T14:00:56;7.45;;;2.40;;
68484;SDS011;55472;50.060;21.960;2023-02-22T14:06:05;9.43;;;2.43;;
68484;SDS011;55472;50.060;21.960;2023-02-22T14:09:06;11.60;;;4.15;;
68484;SDS011;55472;50.060;21.960;2023-02-22T14:11:39;9.45;;;2.50;;
68484;SDS011;55472;50.060;21.960;2023-02-22T14:14:13;8.50;;;2.45;;
68484;SDS011;55472;50.060;21.960;2023-02-22T14:16:42;10.07;;;2.00;;
68484;SDS011;55472;50.060;21.960;2023-02-22T14:22:00;13.48;;;2.28;;
68484;SDS011;55472;50.060;21.960;2023-02-22T14:24:50;8.00;;;2.17;;
68484;SDS011;55472;50.060;21.960;2023-02-22T14:27:15;10.93;;;3.00;;
68484;SDS011;55472;50.060;21.960;2023-02-22T14:29:53;9.70;;;2.40;;
68484;SDS011;55472;50.060;21.960;2023-02-22T14:32:32;14.13;;;2.97;;
68484;SDS011;55472;50.060;21.960;2023-02-22T14:35:02;11.32;;;2.97;;
68484;SDS011;55472;50.060;21.960;2023-02-22T14:37:38;11.73;;;3.75;;
68484;SDS011;55472;50.060;21.960;2023-02-22T14:42:59;74.22;;;18.20;;
68484;SDS011;55472;50.060;21.960;2023-02-22T14:45:50;209.30;;;46.63;;
68484;SDS011;55472;50.060;21.960;2023-02-22T14:50:58;82.53;;;23.27;;
68484;SDS011;55472;50.060;21.960;2023-02-22T14:53:33;78.30;;;22.23;;
68484;SDS011;55472;50.060;21.960;2023-02-22T14:56:21;106.88;;;29.35;;
68484;SDS011;55472;50.060;21.960;2023-02-22T15:01:42;29.00;;;11.60;;
68484;SDS011;55472;50.060;21.960;2023-02-22T15:06:50;14.93;;;5.65;;
68484;SDS011;55472;50.060;21.960;2023-02-22T15:09:25;8.55;;;3.60;;
68484;SDS011;55472;50.060;21.960;2023-02-22T15:14:28;10.00;;;4.45;;
68484;SDS011;55472;50.060;21.960;2023-02-22T15:16:58;11.00;;;4.40;;
68484;SDS011;55472;50.060;21.960;2023-02-22T15:19:32;8.73;;;3.00;;
68484;SDS011;55472;50.060;21.960;2023-02-22T15:22:03;8.93;;;2.00;;
68484;SDS011;55472;50.060;21.960;2023-02-22T15:24:33;8.30;;;2.37;;
68484;SDS011;55472;50.060;21.960;2023-02-22T15:27:03;8.10;;;2.67;;
68484;SDS011;55472;50.060;21.960;2023-02-22T15:29:39;7.70;;;2.67;;
68484;SDS011;55472;50.060;21.960;2023-02-22T15:35:24;40.35;;;12.07;;
68484;SDS011;55472;50.060;21.960;2023-02-22T15:38:16;76.40;;;20.03;;
68484;SDS011;55472;50.060;21.960;2023-02-22T15:40:46;57.58;;;17.23;;
68484;SDS011;55472;50.060;21.960;2023-02-22T15:43:27;46.35;;;13.32;;
68484;SDS011;55472;50.060;21.960;2023-02-22T15:45:54;45.53;;;12.82;;
68484;SDS011;55472;50.060;21.960;2023-02-22T15:48:23;107.70;;;26.92;;
68484;SDS011;55472;50.060;21.960;2023-02-22T15:51:10;98.43;;;25.20;;
68484;SDS011;55472;50.060;21.960;2023-02-22T15:53:42;74.13;;;18.98;;
68484;SDS011;55472;50.060;21.960;2023-02-22T15:56:31;69.90;;;19.02;;
68484;SDS011;55472;50.060;21.960;2023-02-22T15:59:00;66.05;;;18.35;;
68484;SDS011;55472;50.060;21.960;2023-02-22T16:01:30;62.22;;;18.55;;
68484;SDS011;55472;50.060;21.960;2023-02-22T16:04:20;55.03;;;15.63;;
68484;SDS011;55472;50.060;21.960;2023-02-22T16:06:50;46.40;;;12.73;;
68484;SDS011;55472;50.060;21.960;2023-02-22T16:09:28;33.95;;;9.88;;
68484;SDS011;55472;50.060;21.960;2023-02-22T16:12:42;21.23;;;6.45;;
68484;SDS011;55472;50.060;21.960;2023-02-22T16:14:46;15.52;;;4.55;;
68484;SDS011;55472;50.060;21.960;2023-02-22T16:19:53;12.40;;;3.65;;
68484;SDS011;55472;50.060;21.960;2023-02-22T16:22:30;17.65;;;4.32;;
68484;SDS011;55472;50.060;21.960;2023-02-22T16:27:46;11.82;;;3.53;;
68484;SDS011;55472;50.060;21.960;2023-02-22T16:32:58;13.90;;;4.13;;
68484;SDS011;55472;50.060;21.960;2023-02-22T16:35:30;17.05;;;5.72;;
68484;SDS011;55472;50.060;21.960;2023-02-22T16:38:03;29.50;;;8.70;;
68484;SDS011;55472;50.060;21.960;2023-02-22T16:43:01;19.77;;;5.83;;
68484;SDS011;55472;50.060;21.960;2023-02-22T16:45:31;18.38;;;5.75;;
68484;SDS011;55472;50.060;21.960;2023-02-22T16:48:00;21.20;;;6.18;;
68484;SDS011;55472;50.060;21.960;2023-02-22T16:50:38;21.77;;;6.30;;
68484;SDS011;55472;50.060;21.960;2023-02-22T16:53:04;21.70;;;5.75;;
68484;SDS011;55472;50.060;21.960;2023-02-22T16:55:31;20.00;;;5.87;;
68484;SDS011;55472;50.060;21.960;2023-02-22T16:57:57;20.30;;;6.07;;
68484;SDS011;55472;50.060;21.960;2023-02-22T17:00:25;21.88;;;5.80;;
68484;SDS011;55472;50.060;21.960;2023-02-22T17:03:01;24.73;;;7.93;;
68484;SDS011;55472;50.060;21.960;2023-02-22T17:05:30;29.00;;;8.77;;
68484;SDS011;55472;50.060;21.960;2023-02-22T17:08:01;27.40;;;7.90;;
68484;SDS011;55472;50.060;21.960;2023-02-22T17:10:29;24.92;;;7.75;;
68484;SDS011;55472;50.060;21.960;2023-02-22T17:12:55;28.35;;;8.23;;
68484;SDS011;55472;50.060;21.960;2023-02-22T17:15:30;23.88;;;7.35;;
68484;SDS011;55472;50.060;21.960;2023-02-22T17:17:59;27.27;;;7.53;;
68484;SDS011;55472;50.060;21.960;2023-02-22T17:20:31;21.20;;;6.53;;
68484;SDS011;55472;50.060;21.960;2023-02-22T17:22:58;24.58;;;6.82;;
68484;SDS011;55472;50.060;21.960;2023-02-22T17:25:28;25.45;;;7.00;;
68484;SDS011;55472;50.060;21.960;2023-02-22T17:28:20;25.52;;;7.60;;
68484;SDS011;55472;50.060;21.960;2023-02-22T17:30:49;32.90;;;8.43;;
68484;SDS011;55472;50.060;21.960;2023-02-22T17:33:24;36.87;;;9.20;;
68484;SDS011;55472;50.060;21.960;2023-02-22T17:35:53;47.45;;;13.68;;
68484;SDS011;55472;50.060;21.960;2023-02-22T17:38:22;49.10;;;14.50;;
68484;SDS011;55472;50.060;21.960;2023-02-22T17:40:51;32.88;;;10.90;;
68484;SDS011;55472;50.060;21.960;2023-02-22T17:43:18;38.85;;;10.73;;
68484;SDS011;55472;50.060;21.960;2023-02-22T17:45:45;46.80;;;11.83;;
68484;SDS011;55472;50.060;21.960;2023-02-22T17:48:12;42.47;;;12.10;;
68484;SDS011;55472;50.060;21.960;2023-02-22T17:50:41;47.08;;;10.88;;
68484;SDS011;55472;50.060;21.960;2023-02-22T17:53:10;35.80;;;9.75;;
68484;SDS011;55472;50.060;21.960;2023-02-22T17:55:38;29.92;;;9.05;;